Time;durP1;ratioP1;P1;durP2;ratioP2;P2;SDS_P1;SDS_P2;PMS_P1;PMS_P2;Temp;Humidity;BMP_temperature;BMP_pressure;BME280_temperature;BME280_humidity;BME280_pressure;Samples;Min_cycle;Max_cycle;Signal;HPM_P1;HPM_P2
2021/12/18 00:02:09;;;;;;;13.55;3.67;;;6.80;99.90;;;;;;5075267;28;20119;-74
2021/12/18 00:04:34;;;;;;;16.13;3.42;;;6.80;99.90;;;;;;5077379;28;20480;-74
2021/12/18 00:07:01;;;;;;;24.58;3.97;;;6.80;99.90;;;;;;5076949;28;20055;-74
2021/12/18 00:09:30;;;;;;;22.40;4.72;;;6.80;99.90;;;;;;5060952;28;20063;-73
2021/12/18 00:11:57;;;;;;;45.88;5.30;;;6.90;99.90;;;;;;5058994;28;20483;-74
2021/12/18 00:14:23;;;;;;;33.17;5.22;;;6.80;99.90;;;;;;5077248;28;20041;-73
2021/12/18 00:16:49;;;;;;;50.97;5.03;;;6.80;99.90;;;;;;5076253;28;20067;-74
2021/12/18 00:19:15;;;;;;;22.75;5.10;;;6.80;99.90;;;;;;5059186;28;20044;-73
2021/12/18 00:21:40;;;;;;;25.70;4.93;;;6.80;99.90;;;;;;5076838;28;20494;-74
2021/12/18 00:24:08;;;;;;;17.88;4.25;;;6.80;99.90;;;;;;5075988;28;20044;-73
2021/12/18 00:26:34;;;;;;;20.98;4.40;;;6.80;99.90;;;;;;5076696;28;20461;-73
2021/12/18 00:29:00;;;;;;;29.08;5.65;;;6.80;99.90;;;;;;5076867;28;20105;-74
2021/12/18 00:31:26;;;;;;;35.88;5.60;;;6.80;99.90;;;;;;5076024;28;20404;-73
2021/12/18 00:33:52;;;;;;;54.28;6.35;;;6.80;99.90;;;;;;5076412;28;20045;-73
2021/12/18 00:36:18;;;;;;;39.85;5.65;;;6.80;99.90;;;;;;5076621;28;20482;-73
2021/12/18 00:38:44;;;;;;;39.25;5.68;;;6.80;99.90;;;;;;5075858;28;20403;-73
2021/12/18 00:41:27;;;;;;;50.95;6.40;;;6.80;99.90;;;;;;5076301;28;20044;-73
2021/12/18 00:44:03;;;;;;;66.18;6.20;;;6.80;99.90;;;;;;5058947;28;20190;-74
2021/12/18 00:46:36;;;;;;;66.43;7.07;;;6.80;99.90;;;;;;5058188;28;20078;-73
2021/12/18 00:49:08;;;;;;;107.57;8.57;;;6.80;99.90;;;;;;5058445;28;20055;-73
2021/12/18 00:51:34;;;;;;;64.18;6.40;;;6.80;99.90;;;;;;5075897;28;20103;-74
2021/12/18 00:54:00;;;;;;;49.42;6.00;;;6.80;99.90;;;;;;5075949;28;20055;-74
2021/12/18 00:56:26;;;;;;;115.32;7.90;;;6.80;99.90;;;;;;5041781;28;20407;-74
2021/12/18 00:58:52;;;;;;;115.00;8.18;;;6.80;99.90;;;;;;5075584;28;20044;-74
2021/12/18 01:01:20;;;;;;;75.45;6.45;;;6.80;99.90;;;;;;5076105;28;20037;-73
2021/12/18 01:03:48;;;;;;;61.70;6.38;;;6.80;99.90;;;;;;5057930;28;20098;-73
2021/12/18 01:06:15;;;;;;;81.15;7.38;;;6.80;99.90;;;;;;5075184;28;20043;-73
2021/12/18 01:08:41;;;;;;;131.38;9.57;;;6.80;99.90;;;;;;5075531;28;20084;-73
2021/12/18 01:24:47;;;;;;;94.38;5.60;;;6.80;99.90;;;;;;5027268;28;20056;-74
2021/12/18 01:27:13;;;;;;;102.13;6.38;;;6.80;99.90;;;;;;5075143;28;20048;-74
2021/12/18 01:29:39;;;;;;;166.65;7.70;;;6.80;99.90;;;;;;5057289;28;20041;-74
2021/12/18 01:32:06;;;;;;;80.07;7.38;;;6.80;99.90;;;;;;5075559;28;20166;-73
2021/12/18 01:34:32;;;;;;;52.10;7.20;;;6.70;99.90;;;;;;5057049;28;20484;-73
2021/12/18 01:36:58;;;;;;;33.72;5.80;;;6.70;99.90;;;;;;5075400;28;20118;-73
2021/12/18 01:39:24;;;;;;;22.30;3.72;;;6.70;99.90;;;;;;5075240;28;20479;-74
2021/12/18 01:52:24;;;;;;;24.95;3.25;;;6.60;99.90;;;;;;5074958;28;20144;-73
2021/12/18 01:54:50;;;;;;;49.35;4.20;;;6.60;99.90;;;;;;5056762;28;20056;-74
2021/12/18 01:57:16;;;;;;;53.75;4.45;;;6.60;99.90;;;;;;5057502;28;20094;-73
2021/12/18 01:59:47;;;;;;;32.00;3.63;;;6.60;99.90;;;;;;5075249;28;20471;-73
2021/12/18 02:02:13;;;;;;;57.90;3.45;;;6.50;99.90;;;;;;5074369;28;20040;-73
2021/12/18 02:04:40;;;;;;;54.40;2.95;;;6.50;99.90;;;;;;5056872;28;20041;-73
2021/12/18 02:07:07;;;;;;;61.30;3.83;;;6.50;99.90;;;;;;5074862;28;20049;-73
2021/12/18 02:10:22;;;;;;;41.65;3.05;;;6.60;99.90;;;;;;5074100;28;20066;-73
2021/12/18 02:12:25;;;;;;;30.85;3.53;;;6.50;99.90;;;;;;5067078;28;20052;-73
2021/12/18 02:20:36;;;;;;;48.20;4.55;;;6.50;99.90;;;;;;5074570;28;20107;-74
2021/12/18 02:23:02;;;;;;;21.55;3.90;;;6.50;99.90;;;;;;5073922;28;20062;-73
2021/12/18 02:25:31;;;;;;;36.47;4.15;;;6.50;99.90;;;;;;5074330;28;20047;-74
2021/12/18 02:27:57;;;;;;;21.70;3.28;;;6.50;99.90;;;;;;5074560;28;20048;-74
2021/12/18 02:30:24;;;;;;;18.35;2.80;;;6.50;99.90;;;;;;5073187;28;20086;-74
2021/12/18 02:32:51;;;;;;;24.02;3.20;;;6.50;99.90;;;;;;5074399;28;20130;-73
2021/12/18 02:35:29;;;;;;;20.80;3.35;;;6.40;99.90;;;;;;5074320;28;20051;-74
2021/12/18 02:38:12;;;;;;;23.92;3.00;;;6.40;99.90;;;;;;5073406;28;20052;-74
2021/12/18 02:43:24;;;;;;;;;;;6.40;99.90;;;;;;5074889;28;20091;-74
2021/12/18 02:45:54;;;;;;;26.55;3.55;;;6.40;99.90;;;;;;5073578;28;20397;-74
2021/12/18 02:48:21;;;;;;;26.98;4.32;;;6.40;99.90;;;;;;5074053;28;20041;-74
2021/12/18 02:50:46;;;;;;;29.60;4.43;;;6.40;99.90;;;;;;5055494;28;20123;-73
2021/12/18 02:53:12;;;;;;;13.80;3.03;;;6.40;99.90;;;;;;5055600;28;20135;-74
2021/12/18 02:55:38;;;;;;;4.53;1.83;;;6.40;99.90;;;;;;5056039;28;20044;-74
2021/12/18 02:58:04;;;;;;;7.65;2.03;;;6.40;99.90;;;;;;5073238;28;20063;-74
2021/12/18 03:00:29;;;;;;;9.82;2.15;;;6.50;99.90;;;;;;5073663;28;20516;-74
2021/12/18 03:02:56;;;;;;;9.95;2.25;;;6.40;99.90;;;;;;5073683;28;20048;-73
2021/12/18 03:05:30;;;;;;;11.95;2.22;;;6.40;99.90;;;;;;5055422;28;20052;-74
2021/12/18 03:08:04;;;;;;;17.05;2.30;;;6.40;99.90;;;;;;5073482;28;20443;-73
2021/12/18 03:19:55;;;;;;;15.93;3.00;;;6.40;99.90;;;;;;5073483;28;20458;-74
2021/12/18 03:24:29;;;;;;;22.52;3.42;;;6.40;99.90;;;;;;5072465;28;20097;-74
2021/12/18 03:26:55;;;;;;;16.60;2.72;;;6.40;99.90;;;;;;5072936;28;20048;-73
2021/12/18 03:29:21;;;;;;;19.90;3.38;;;6.40;99.90;;;;;;5073414;28;20046;-73
2021/12/18 03:31:47;;;;;;;27.65;3.50;;;6.40;99.90;;;;;;5073573;28;20040;-73
2021/12/18 03:34:12;;;;;;;32.50;4.15;;;6.40;99.90;;;;;;5073239;28;20091;-73
2021/12/18 03:36:38;;;;;;;26.58;3.78;;;6.40;99.90;;;;;;5072439;28;20504;-73
2021/12/18 03:39:04;;;;;;;27.48;3.45;;;6.40;99.90;;;;;;5073287;28;20044;-73
2021/12/18 03:41:30;;;;;;;44.83;4.97;;;6.50;99.90;;;;;;5073014;28;20488;-73
2021/12/18 03:43:56;;;;;;;20.85;3.15;;;6.40;99.90;;;;;;5073055;28;20072;-73
2021/12/18 03:46:21;;;;;;;27.23;3.75;;;6.40;99.90;;;;;;5073391;28;20052;-74
2021/12/18 03:48:47;;;;;;;55.38;5.60;;;6.40;99.90;;;;;;5072793;28;20129;-73
2021/12/18 03:51:13;;;;;;;32.53;4.22;;;6.50;99.90;;;;;;5073310;28;20266;-73
2021/12/18 03:53:39;;;;;;;28.17;4.30;;;6.50;99.90;;;;;;5051559;28;20084;-73
2021/12/18 03:56:05;;;;;;;47.78;4.53;;;6.50;99.90;;;;;;5052566;28;20052;-73
2021/12/18 03:58:31;;;;;;;30.38;3.65;;;6.50;99.90;;;;;;5053097;28;20049;-73
2021/12/18 04:00:57;;;;;;;16.65;2.78;;;6.50;99.90;;;;;;5057618;28;20119;-73
2021/12/18 04:03:23;;;;;;;41.72;4.43;;;6.50;99.90;;;;;;5072409;28;20397;-73
2021/12/18 04:05:49;;;;;;;36.83;4.05;;;6.50;99.90;;;;;;5073360;28;20037;-73
2021/12/18 04:08:15;;;;;;;17.98;3.10;;;6.50;99.90;;;;;;5072308;28;20495;-73
2021/12/18 04:10:41;;;;;;;48.35;5.13;;;6.50;99.90;;;;;;5072839;28;20036;-73
2021/12/18 04:13:08;;;;;;;38.17;3.65;;;6.50;99.90;;;;;;5073307;28;20090;-74
2021/12/18 04:15:35;;;;;;;32.20;3.83;;;6.50;99.90;;;;;;5072385;28;20076;-74
2021/12/18 04:18:01;;;;;;;32.28;4.00;;;6.50;99.90;;;;;;5072834;28;20052;-73
2021/12/18 04:20:27;;;;;;;31.33;3.78;;;6.50;99.90;;;;;;5073170;28;20101;-74
2021/12/18 04:22:53;;;;;;;44.83;4.53;;;6.50;99.90;;;;;;5072297;28;20045;-73
2021/12/18 04:25:20;;;;;;;39.15;4.65;;;6.50;99.90;;;;;;5072665;28;20064;-73
2021/12/18 04:27:45;;;;;;;29.88;4.07;;;6.50;99.90;;;;;;5073094;28;20119;-74
2021/12/18 04:30:12;;;;;;;37.22;4.03;;;6.50;99.90;;;;;;5072394;28;20460;-74
2021/12/18 04:32:38;;;;;;;18.38;3.50;;;6.60;99.90;;;;;;5072561;28;20178;-74
2021/12/18 04:35:04;;;;;;;34.33;4.07;;;6.60;99.90;;;;;;5055036;28;20084;-73
2021/12/18 04:37:30;;;;;;;51.40;4.85;;;6.60;99.90;;;;;;5071955;28;20044;-73
2021/12/18 04:39:55;;;;;;;18.02;4.10;;;6.60;99.90;;;;;;5072716;28;20036;-74
2021/12/18 04:42:21;;;;;;;29.85;4.60;;;6.60;99.90;;;;;;5072929;28;20063;-73
2021/12/18 04:44:47;;;;;;;45.28;5.18;;;6.60;99.90;;;;;;5072172;28;20404;-73
2021/12/18 04:47:13;;;;;;;36.50;4.93;;;6.60;99.90;;;;;;5055842;28;20159;-74
2021/12/18 04:49:39;;;;;;;52.42;6.68;;;6.60;99.90;;;;;;5076089;28;20048;-74
2021/12/18 04:52:05;;;;;;;57.95;6.75;;;6.70;99.90;;;;;;5075483;28;20102;-73
2021/12/18 04:54:31;;;;;;;39.80;6.22;;;6.70;99.90;;;;;;5076239;28;20488;-74
2021/12/18 04:56:58;;;;;;;29.98;5.30;;;6.70;99.90;;;;;;5058241;28;20055;-73
2021/12/18 04:59:23;;;;;;;58.13;7.28;;;6.70;99.90;;;;;;5075840;28;20457;-73
2021/12/18 05:01:51;;;;;;;39.05;5.65;;;6.70;99.90;;;;;;5076052;28;20036;-73
2021/12/18 05:04:17;;;;;;;61.92;6.93;;;6.70;99.90;;;;;;5076176;28;20102;-73
2021/12/18 05:06:45;;;;;;;36.95;6.05;;;6.70;99.90;;;;;;5057497;28;20585;-73
2021/12/18 05:09:16;;;;;;;70.28;6.90;;;6.70;99.90;;;;;;5075592;28;20480;-73
2021/12/18 05:11:43;;;;;;;39.63;6.47;;;6.80;99.90;;;;;;5075557;28;20048;-73
2021/12/18 05:14:10;;;;;;;38.60;6.07;;;6.70;99.90;;;;;;5075687;28;20044;-73
2021/12/18 05:16:36;;;;;;;47.47;7.40;;;6.80;99.90;;;;;;5075901;28;20056;-74
2021/12/18 05:19:03;;;;;;;46.40;6.28;;;6.80;99.90;;;;;;5075282;28;20067;-73
2021/12/18 05:21:29;;;;;;;54.60;6.70;;;6.80;99.90;;;;;;5075783;28;20049;-73
2021/12/18 05:23:55;;;;;;;58.53;6.57;;;6.80;99.90;;;;;;5075742;28;20541;-73
2021/12/18 05:26:21;;;;;;;54.60;6.53;;;6.80;99.90;;;;;;5075016;28;20392;-73
2021/12/18 05:28:46;;;;;;;32.10;6.68;;;6.80;99.90;;;;;;5075482;28;20499;-73
2021/12/18 05:31:16;;;;;;;31.33;5.57;;;6.80;99.90;;;;;;5057867;28;20134;-73
2021/12/18 05:33:46;;;;;;;46.63;7.18;;;6.90;99.90;;;;;;5074886;28;20488;-73
2021/12/18 05:38:55;;;;;;;45.30;6.65;;;6.90;99.90;;;;;;5075345;28;20049;-73
2021/12/18 05:41:21;;;;;;;58.08;7.90;;;6.90;99.90;;;;;;5074966;28;20369;-73
2021/12/18 05:43:46;;;;;;;58.83;7.53;;;6.90;99.90;;;;;;5075329;28;20040;-73
2021/12/18 05:46:12;;;;;;;41.70;7.05;;;6.90;99.90;;;;;;5057753;28;20047;-73
2021/12/18 05:48:38;;;;;;;52.30;8.02;;;6.90;99.90;;;;;;5074450;28;20388;-73
2021/12/18 05:51:05;;;;;;;67.70;9.13;;;6.90;99.90;;;;;;5074772;28;20084;-73
2021/12/18 05:53:32;;;;;;;39.30;6.38;;;7.00;99.90;;;;;;5075093;28;20049;-73
2021/12/18 05:55:58;;;;;;;33.47;5.95;;;7.00;99.90;;;;;;5057053;28;20127;-73
2021/12/18 05:58:24;;;;;;;40.50;6.35;;;7.00;99.90;;;;;;5074450;28;20132;-73
2021/12/18 06:00:50;;;;;;;46.88;6.80;;;7.00;99.90;;;;;;5074441;28;20037;-73
2021/12/18 06:03:15;;;;;;;46.42;6.80;;;7.00;99.90;;;;;;5056609;28;20124;-73
2021/12/18 06:05:41;;;;;;;41.45;6.70;;;7.00;99.90;;;;;;5056949;28;20087;-73
2021/12/18 06:08:11;;;;;;;30.73;6.22;;;7.00;99.90;;;;;;5056295;28;20085;-73
2021/12/18 06:10:37;;;;;;;35.80;5.80;;;7.00;99.90;;;;;;5056725;28;20514;-73
2021/12/18 06:13:03;;;;;;;30.30;5.75;;;7.00;99.90;;;;;;5057080;28;20471;-73
2021/12/18 06:15:32;;;;;;;33.53;6.00;;;7.00;99.90;;;;;;5056002;28;20099;-74
2021/12/18 06:18:01;;;;;;;18.42;5.55;;;7.00;99.90;;;;;;5074288;28;20056;-73
2021/12/18 06:20:29;;;;;;;25.65;5.50;;;7.10;99.90;;;;;;5074521;28;20135;-73
2021/12/18 06:22:56;;;;;;;25.77;5.40;;;7.00;99.90;;;;;;5073907;28;20098;-73
2021/12/18 06:25:22;;;;;;;25.65;5.25;;;7.10;99.90;;;;;;5074550;28;20080;-73
2021/12/18 06:27:48;;;;;;;20.65;4.65;;;7.10;99.90;;;;;;5074663;28;20083;-73
2021/12/18 06:30:17;;;;;;;22.98;4.90;;;7.10;99.90;;;;;;5073868;28;20082;-73
2021/12/18 06:32:43;;;;;;;32.38;5.32;;;7.10;99.90;;;;;;5056331;28;20052;-73
2021/12/18 06:35:10;;;;;;;23.33;5.22;;;7.20;99.90;;;;;;5074430;28;20070;-73
2021/12/18 06:37:36;;;;;;;38.58;5.95;;;7.20;99.90;;;;;;5073499;28;20036;-73
2021/12/18 06:40:04;;;;;;;22.23;4.93;;;7.20;99.90;;;;;;5073888;28;20048;-73
2021/12/18 06:42:30;;;;;;;27.30;5.15;;;7.20;99.90;;;;;;5074261;28;20551;-73
2021/12/18 06:44:56;;;;;;;22.10;4.95;;;7.20;99.90;;;;;;5073518;28;20128;-73
2021/12/18 06:47:22;;;;;;;28.08;5.65;;;7.20;99.90;;;;;;5056503;28;20059;-73
2021/12/18 06:49:47;;;;;;;27.35;5.97;;;7.30;99.90;;;;;;5074038;28;20534;-73
2021/12/18 06:52:13;;;;;;;26.40;6.05;;;7.30;99.90;;;;;;5055691;28;20052;-73
2021/12/18 06:54:39;;;;;;;22.85;5.47;;;7.30;99.90;;;;;;5073955;28;20135;-73
2021/12/18 06:57:05;;;;;;;44.03;8.63;;;7.30;99.90;;;;;;5055132;28;20480;-73
2021/12/18 06:59:31;;;;;;;36.55;6.55;;;7.30;99.90;;;;;;5073702;28;20143;-73
2021/12/18 07:01:57;;;;;;;33.25;6.20;;;7.30;99.90;;;;;;5073957;28;20108;-73
2021/12/18 07:04:24;;;;;;;35.28;7.07;;;7.30;99.90;;;;;;5073137;28;20051;-73
2021/12/18 07:06:54;;;;;;;40.03;8.05;;;7.30;99.90;;;;;;5073590;28;20036;-73
2021/12/18 07:09:21;;;;;;;33.22;7.75;;;7.40;99.90;;;;;;5073699;28;20051;-73
2021/12/18 07:11:46;;;;;;;35.97;8.02;;;7.40;99.90;;;;;;5072297;28;20048;-73
2021/12/18 07:14:15;;;;;;;41.38;7.03;;;7.40;99.90;;;;;;5055473;28;20063;-73
2021/12/18 07:16:41;;;;;;;40.78;7.78;;;7.40;99.90;;;;;;5055649;28;20060;-73
2021/12/18 07:19:06;;;;;;;38.38;7.65;;;7.50;99.90;;;;;;5054950;28;20051;-73
2021/12/18 07:21:32;;;;;;;43.72;7.78;;;7.50;99.90;;;;;;5073459;28;20480;-73
2021/12/18 07:23:58;;;;;;;26.45;6.40;;;7.50;99.90;;;;;;5073299;28;20054;-74
2021/12/18 07:26:24;;;;;;;35.13;7.78;;;7.50;99.90;;;;;;5054954;28;20167;-73
2021/12/18 07:28:49;;;;;;;34.25;7.40;;;7.50;99.90;;;;;;5055280;28;20044;-73
2021/12/18 07:31:15;;;;;;;28.70;7.18;;;7.50;99.90;;;;;;5073388;28;20119;-73
2021/12/18 07:33:43;;;;;;;35.53;7.03;;;7.50;99.90;;;;;;5054816;28;20062;-73
2021/12/18 07:36:09;;;;;;;31.85;7.22;;;7.50;99.90;;;;;;5072855;28;20106;-73
2021/12/18 07:38:35;;;;;;;35.28;7.38;;;7.50;99.90;;;;;;5055074;28;20044;-73
2021/12/18 07:41:01;;;;;;;20.42;6.53;;;7.50;99.90;;;;;;5072165;28;21076;-74
2021/12/18 07:43:27;;;;;;;24.77;6.30;;;7.50;99.90;;;;;;5055479;28;20044;-74
2021/12/18 07:45:53;;;;;;;22.05;5.68;;;7.60;99.90;;;;;;5073562;28;20043;-73
2021/12/18 07:48:18;;;;;;;31.95;7.05;;;7.60;99.90;;;;;;5072667;28;20052;-74
2021/12/18 07:50:45;;;;;;;33.47;6.30;;;7.60;99.90;;;;;;5073440;28;20097;-73
2021/12/18 07:53:11;;;;;;;29.90;7.07;;;7.60;99.90;;;;;;5071920;28;20048;-73
2021/12/18 07:55:38;;;;;;;25.92;7.10;;;7.60;99.90;;;;;;5072911;28;20108;-73
2021/12/18 07:58:04;;;;;;;29.77;7.10;;;7.60;99.90;;;;;;5055009;28;20048;-73
2021/12/18 08:00:30;;;;;;;33.55;7.78;;;7.60;99.90;;;;;;5054304;28;20056;-73
2021/12/18 08:02:56;;;;;;;28.15;7.65;;;7.70;99.90;;;;;;5072942;28;20041;-73
2021/12/18 08:05:22;;;;;;;29.33;8.73;;;7.70;99.90;;;;;;5073247;28;20048;-73
2021/12/18 08:07:48;;;;;;;25.17;7.07;;;7.70;99.90;;;;;;5072292;28;20036;-73
2021/12/18 08:10:14;;;;;;;23.20;7.70;;;7.70;99.90;;;;;;5072774;28;20039;-73
2021/12/18 08:12:40;;;;;;;32.55;7.90;;;7.70;99.90;;;;;;5073245;28;20123;-73
2021/12/18 08:15:07;;;;;;;19.17;7.05;;;7.70;99.90;;;;;;5071979;28;20120;-73
2021/12/18 08:17:34;;;;;;;22.83;7.40;;;7.70;99.90;;;;;;5072936;28;20056;-72
2021/12/18 08:20:19;;;;;;;30.02;9.25;;;7.80;99.90;;;;;;5073212;28;20076;-72
2021/12/18 08:22:45;;;;;;;30.15;7.75;;;7.80;99.90;;;;;;5056300;28;20676;-73
2021/12/18 08:25:11;;;;;;;29.40;8.30;;;7.80;99.90;;;;;;5076630;28;20040;-73
2021/12/18 08:27:37;;;;;;;19.13;5.82;;;7.80;99.90;;;;;;5076967;28;20041;-73
2021/12/18 08:30:03;;;;;;;16.00;6.00;;;7.80;99.90;;;;;;5076132;28;20124;-73
2021/12/18 08:32:29;;;;;;;27.13;7.25;;;7.80;99.90;;;;;;5058839;28;20058;-73
2021/12/18 08:34:55;;;;;;;20.83;6.32;;;7.90;99.90;;;;;;5076621;28;20112;-73
2021/12/18 08:37:20;;;;;;;23.67;6.65;;;7.80;99.90;;;;;;5075845;28;20041;-73
2021/12/18 08:39:48;;;;;;;20.77;6.30;;;7.90;99.90;;;;;;5076137;28;20041;-73
2021/12/18 08:42:14;;;;;;;20.00;6.75;;;7.90;99.90;;;;;;5058554;28;20101;-73
2021/12/18 08:44:40;;;;;;;17.58;6.45;;;7.90;99.90;;;;;;5057835;28;20040;-73
2021/12/18 08:47:05;;;;;;;19.63;6.82;;;8.00;99.90;;;;;;5058868;28;20083;-73
2021/12/18 08:49:31;;;;;;;17.13;5.63;;;8.00;99.90;;;;;;5058048;28;20435;-73
2021/12/18 08:51:58;;;;;;;27.70;6.45;;;8.00;99.90;;;;;;5058457;28;20052;-73
2021/12/18 08:54:24;;;;;;;20.80;6.70;;;8.00;99.90;;;;;;5058495;28;20056;-73
2021/12/18 08:56:50;;;;;;;22.08;6.75;;;8.00;99.90;;;;;;5058020;28;20123;-73
2021/12/18 08:59:16;;;;;;;19.42;6.85;;;8.10;99.90;;;;;;5058243;28;20614;-73
2021/12/18 09:01:42;;;;;;;29.70;7.80;;;8.10;99.90;;;;;;5058048;28;20499;-73
2021/12/18 09:04:07;;;;;;;19.75;6.50;;;8.10;99.90;;;;;;5075614;28;20041;-73
2021/12/18 09:06:33;;;;;;;25.98;6.60;;;8.10;99.90;;;;;;5076064;28;20036;-73
2021/12/18 09:08:59;;;;;;;18.63;5.72;;;8.10;99.90;;;;;;5076019;28;20504;-73
2021/12/18 09:11:25;;;;;;;27.50;7.07;;;8.20;99.90;;;;;;5075387;28;20072;-73
2021/12/18 09:13:50;;;;;;;25.52;6.40;;;8.20;99.90;;;;;;5057890;28;20404;-73
2021/12/18 09:16:17;;;;;;;24.23;6.20;;;8.20;99.90;;;;;;5057718;28;20064;-73
2021/12/18 09:18:43;;;;;;;25.92;6.43;;;8.20;99.90;;;;;;5074597;28;20055;-73
2021/12/18 09:21:09;;;;;;;29.33;6.70;;;8.20;99.90;;;;;;5021457;28;20041;-73
2021/12/18 09:23:34;;;;;;;20.25;6.53;;;8.30;99.90;;;;;;5047787;28;20373;-73
2021/12/18 09:26:00;;;;;;;19.05;6.15;;;8.30;99.90;;;;;;5057534;28;20041;-73
2021/12/18 09:28:26;;;;;;;17.40;6.32;;;8.30;99.90;;;;;;5057513;28;20502;-73
2021/12/18 09:30:52;;;;;;;19.48;5.57;;;8.30;99.90;;;;;;5075793;28;20542;-73
2021/12/18 09:33:18;;;;;;;17.88;6.03;;;8.30;99.90;;;;;;5073949;28;20049;-73
2021/12/18 09:35:45;;;;;;;15.48;5.45;;;8.30;99.90;;;;;;5075472;28;20067;-73
2021/12/18 09:38:12;;;;;;;14.82;5.28;;;8.40;99.90;;;;;;5057991;28;20450;-73
2021/12/18 09:40:38;;;;;;;17.88;4.60;;;8.40;99.90;;;;;;5056743;28;20098;-73
2021/12/18 09:43:04;;;;;;;10.65;4.53;;;8.40;99.90;;;;;;5075487;28;20051;-74
2021/12/18 09:45:30;;;;;;;10.68;4.25;;;8.40;99.90;;;;;;5075579;28;20384;-74
2021/12/18 09:47:56;;;;;;;7.30;3.53;;;8.40;99.90;;;;;;5073886;28;20064;-74
2021/12/18 09:50:24;;;;;;;6.10;3.20;;;8.40;99.90;;;;;;5075457;28;20424;-73
2021/12/18 09:52:52;;;;;;;10.85;3.55;;;8.40;99.90;;;;;;5074304;28;20040;-73
2021/12/18 09:55:18;;;;;;;9.27;3.50;;;8.40;99.90;;;;;;5056938;28;20500;-73
2021/12/18 09:57:45;;;;;;;16.80;4.13;;;8.40;99.90;;;;;;5057303;28;20056;-73
2021/12/18 10:00:15;;;;;;;8.50;3.53;;;8.40;99.90;;;;;;5057006;28;20048;-73
2021/12/18 10:02:41;;;;;;;8.35;3.33;;;8.50;99.90;;;;;;5056620;28;20079;-73
2021/12/18 10:05:25;;;;;;;11.07;3.50;;;8.50;99.90;;;;;;5057088;28;20044;-73
2021/12/18 10:08:04;;;;;;;11.95;3.33;;;8.50;99.90;;;;;;5056274;28;20070;-73
2021/12/18 10:10:30;;;;;;;8.80;3.90;;;8.40;99.90;;;;;;5074850;28;20044;-73
2021/12/18 10:13:05;;;;;;;6.32;3.67;;;8.40;99.90;;;;;;5057356;28;20487;-74
2021/12/18 10:15:31;;;;;;;6.78;3.45;;;8.40;99.90;;;;;;5074000;28;20171;-74
2021/12/18 10:18:06;;;;;;;8.48;4.22;;;8.40;99.90;;;;;;5074887;28;20503;-73
2021/12/18 10:20:32;;;;;;;11.85;3.20;;;8.50;99.90;;;;;;5074787;28;20041;-73
2021/12/18 10:23:03;;;;;;;5.07;2.90;;;8.40;99.90;;;;;;5071835;28;20053;-73
2021/12/18 10:25:42;;;;;;;7.00;2.80;;;8.50;99.90;;;;;;5037045;28;20484;-73
2021/12/18 10:28:15;;;;;;;11.50;3.78;;;8.40;99.90;;;;;;5055948;28;20049;-72
2021/12/18 10:30:49;;;;;;;10.02;3.67;;;8.40;99.90;;;;;;5056731;28;20389;-72
2021/12/18 10:33:16;;;;;;;4.88;2.40;;;8.40;99.90;;;;;;5054950;28;20054;-73
2021/12/18 10:35:46;;;;;;;7.15;2.10;;;8.40;99.90;;;;;;5055537;28;20169;-73
2021/12/18 10:38:55;;;;;;;4.38;1.60;;;8.40;99.90;;;;;;5042431;28;20090;-74
2021/12/18 10:41:34;;;;;;;1.02;0.90;;;8.40;99.90;;;;;;5036327;28;20060;-74
2021/12/18 10:44:13;;;;;;;4.60;1.48;;;8.40;99.90;;;;;;5061100;28;20063;-73
2021/12/18 10:46:43;;;;;;;6.75;1.58;;;8.40;99.90;;;;;;5039505;28;20053;-73
2021/12/18 10:49:14;;;;;;;3.60;1.70;;;8.40;99.90;;;;;;5073734;28;20105;-73
2021/12/18 10:51:41;;;;;;;5.50;1.80;;;8.40;99.90;;;;;;5056456;28;20047;-73
2021/12/18 10:54:18;;;;;;;3.25;1.90;;;8.40;99.90;;;;;;5074122;28;20044;-73
2021/12/18 10:56:47;;;;;;;3.67;2.10;;;8.50;99.90;;;;;;5073457;28;20127;-74
2021/12/18 10:59:25;;;;;;;4.38;2.58;;;8.40;99.90;;;;;;5055738;28;20085;-74
2021/12/18 11:01:53;;;;;;;6.60;2.92;;;8.50;99.90;;;;;;5073710;28;20048;-73
2021/12/18 11:04:26;;;;;;;8.05;3.13;;;8.50;99.90;;;;;;5055169;28;20040;-74
2021/12/18 11:06:54;;;;;;;12.35;4.00;;;8.50;99.90;;;;;;5039320;28;20057;-74
2021/12/18 11:09:28;;;;;;;9.05;3.90;;;8.50;99.90;;;;;;5039471;28;20052;-73
2021/12/18 11:14:41;;;;;;;14.20;4.10;;;8.50;99.90;;;;;;5073456;28;20098;-74
2021/12/18 11:17:11;;;;;;;9.65;4.18;;;8.60;99.90;;;;;;5054918;28;20052;-73
2021/12/18 11:19:39;;;;;;;11.30;4.15;;;8.60;99.90;;;;;;5055522;28;20056;-74
2021/12/18 11:22:15;;;;;;;5.03;3.67;;;8.60;99.90;;;;;;5055945;28;20045;-74
2021/12/18 11:25:07;;;;;;;11.70;4.32;;;8.70;99.90;;;;;;5073208;28;20048;-73
2021/12/18 11:27:35;;;;;;;17.60;5.57;;;8.60;99.90;;;;;;5073237;28;20098;-74
2021/12/18 11:30:13;;;;;;;12.50;4.20;;;8.70;99.90;;;;;;5055476;28;20052;-73
2021/12/18 11:32:41;;;;;;;12.02;4.78;;;8.70;99.90;;;;;;5054790;28;20064;-73
2021/12/18 11:35:10;;;;;;;12.23;4.68;;;8.80;99.90;;;;;;5055631;28;20090;-74
2021/12/18 11:37:46;;;;;;;13.75;4.60;;;8.80;99.90;;;;;;5055427;28;20060;-74
2021/12/18 11:40:16;;;;;;;11.93;4.70;;;8.80;99.90;;;;;;5054745;28;20044;-73
2021/12/18 11:42:43;;;;;;;10.48;4.38;;;8.80;99.90;;;;;;5055739;28;20052;-74
2021/12/18 11:45:09;;;;;;;9.10;4.75;;;8.80;99.90;;;;;;5073359;28;20045;-74
2021/12/18 11:47:38;;;;;;;10.20;3.63;;;8.90;99.90;;;;;;5054678;28;20052;-74
2021/12/18 11:50:27;;;;;;;8.07;3.92;;;8.80;99.90;;;;;;5073476;28;20040;-74
2021/12/18 11:52:57;;;;;;;11.38;3.33;;;8.90;99.90;;;;;;5072714;28;20511;-74
2021/12/18 11:55:25;;;;;;;8.88;3.45;;;8.90;99.90;;;;;;5051901;28;20037;-74
2021/12/18 11:57:59;;;;;;;11.07;3.35;;;8.80;99.90;;;;;;5055754;28;20052;-74
2021/12/18 12:00:37;;;;;;;7.32;2.97;;;8.80;99.90;;;;;;5074198;28;20040;-74
2021/12/18 12:03:06;;;;;;;8.75;3.00;;;8.80;99.90;;;;;;5059472;28;20052;-74
2021/12/18 12:05:31;;;;;;;11.00;3.40;;;8.90;99.90;;;;;;5059746;28;20127;-74
2021/12/18 12:08:19;;;;;;;9.05;3.15;;;8.90;99.90;;;;;;5058364;28;20524;-74
2021/12/18 12:11:15;;;;;;;5.63;2.22;;;8.90;99.90;;;;;;5042716;28;20051;-74
2021/12/18 12:14:08;;;;;;;11.38;2.88;;;8.90;99.90;;;;;;5074598;28;20162;-74
2021/12/18 12:16:45;;;;;;;8.02;2.72;;;8.90;99.90;;;;;;5058465;28;20063;-74
2021/12/18 12:19:20;;;;;;;10.35;2.42;;;8.90;99.90;;;;;;5075495;28;20044;-74
2021/12/18 12:21:48;;;;;;;8.43;2.45;;;8.90;99.90;;;;;;5056767;28;20052;-74
2021/12/18 12:24:20;;;;;;;9.23;2.80;;;8.90;99.90;;;;;;5039387;28;20128;-74
2021/12/18 12:26:47;;;;;;;11.45;2.92;;;8.90;99.90;;;;;;5047144;28;20102;-74
2021/12/18 12:29:14;;;;;;;11.70;2.58;;;8.80;99.90;;;;;;5072532;28;20519;-74
2021/12/18 12:32:02;;;;;;;8.65;2.63;;;8.90;99.90;;;;;;5046305;28;20132;-73
2021/12/18 12:34:35;;;;;;;10.70;3.28;;;8.80;99.90;;;;;;5038683;28;20061;-73
2021/12/18 12:37:23;;;;;;;9.77;2.63;;;8.80;99.90;;;;;;5055445;28;20420;-74
2021/12/18 12:39:58;;;;;;;12.73;2.47;;;8.90;99.90;;;;;;5043989;28;20105;-74
2021/12/18 12:42:24;;;;;;;;;;;8.80;99.90;;;;;;5060838;28;20071;-74
2021/12/18 12:44:59;;;;;;;7.10;1.85;;;8.80;99.90;;;;;;5058525;28;19920;-74
2021/12/18 12:47:27;;;;;;;9.02;2.42;;;8.80;99.90;;;;;;5076326;28;20540;-74
2021/12/18 12:50:07;;;;;;;7.90;2.75;;;8.80;99.90;;;;;;5054362;28;20064;-74
2021/12/18 12:52:32;;;;;;;10.40;2.53;;;8.80;99.90;;;;;;5033456;28;20098;-74
2021/12/18 12:55:03;;;;;;;8.70;2.15;;;8.90;99.90;;;;;;5058334;28;20088;-74
2021/12/18 12:57:30;;;;;;;13.95;2.40;;;8.90;99.90;;;;;;5075402;28;20098;-74
2021/12/18 12:59:58;;;;;;;12.20;2.78;;;8.90;99.90;;;;;;5076335;28;20048;-74
2021/12/18 13:02:32;;;;;;;10.63;2.63;;;8.90;99.90;;;;;;5076030;28;20115;-74
2021/12/18 13:05:07;;;;;;;8.32;2.22;;;8.90;99.90;;;;;;5052412;28;20044;-73
2021/12/18 13:07:34;;;;;;;10.93;2.30;;;8.90;99.90;;;;;;5056159;28;20044;-74
2021/12/18 13:10:00;;;;;;;10.00;2.40;;;8.80;99.90;;;;;;5037597;28;20048;-74
2021/12/18 13:12:26;;;;;;;10.82;2.03;;;8.90;99.90;;;;;;5055992;28;20049;-73
2021/12/18 13:14:52;;;;;;;10.95;2.17;;;8.90;99.90;;;;;;5038105;28;20124;-73
2021/12/18 13:17:21;;;;;;;10.63;2.58;;;8.90;99.90;;;;;;5037085;28;20056;-74
2021/12/18 13:20:04;;;;;;;7.28;3.15;;;8.80;99.90;;;;;;5070740;28;20044;-74
2021/12/18 13:22:33;;;;;;;10.68;2.72;;;8.90;99.90;;;;;;5055965;28;20047;-74
2021/12/18 13:25:14;;;;;;;11.85;3.10;;;8.80;99.90;;;;;;5037131;28;20496;-74
2021/12/18 13:27:42;;;;;;;10.35;2.90;;;8.80;99.90;;;;;;5055696;28;20044;-75
2021/12/18 13:30:18;;;;;;;13.48;2.67;;;8.80;99.90;;;;;;5056500;28;20365;-74
2021/12/18 13:32:50;;;;;;;10.15;2.53;;;8.80;99.90;;;;;;5056944;28;20059;-74
2021/12/18 13:35:16;;;;;;;8.43;2.72;;;8.80;99.90;;;;;;5057464;28;20076;-74
2021/12/18 13:37:52;;;;;;;8.32;2.35;;;8.80;99.90;;;;;;5057559;28;20049;-74
2021/12/18 13:40:18;;;;;;;8.40;2.30;;;8.80;99.90;;;;;;5057537;28;20051;-75
2021/12/18 13:42:44;;;;;;;9.55;2.78;;;8.80;99.90;;;;;;5058011;28;20037;-74
2021/12/18 13:45:10;;;;;;;5.40;2.55;;;8.80;99.90;;;;;;5040411;28;20492;-74